Magnus Heinason — OW2252 — position and weather

sailwx.info

Track history (hours):
 
Tides and Currents Weather Stations Pressure Air Temp Water Temp Dewpoint Dewpoint Depression Visibility Wind Speed Wind Dir Waves Ship Positions

Oceanographic research ship Magnus Heinason (Faroe Islands)

Detailed information on ship capabilities available from ARCUS's ALIAS (Arctic Logistics Information and Support) project.

Last reported at 2015-Apr-30 13:33 UTC. Time now 2015-May-05 16:17 UTC.
Position N 62°00' W 006°46'.

Length 44 m; draft 4 m.

Type: . MMSI: 231041000.

Date/timePositionNaut miles runAvg speedWind from/ knotsBaromVisibWave heightAir tempDewpointWater temp
2015-Apr-30 13:33N 62°00' W 006°46'0 0.0
2015-Apr-30 12:33N 62°00' W 006°46'0 0.0
2015-Apr-30 11:32N 62°00' W 006°46'0 0.0
2015-Apr-30 10:33N 62°00' W 006°46'0 0.0
2015-Apr-30 09:32N 62°00' W 006°46'0 0.0
2015-Apr-30 08:33N 62°00' W 006°46'0 0.0
2015-Apr-30 07:29N 62°00' W 006°46'0 0.0
2015-Apr-30 06:32N 62°00' W 006°46'0 0.0
2015-Apr-30 05:25N 62°00' W 006°46'0 0.0
2015-Apr-30 04:27N 62°00' W 006°46'0 0.0
2015-Apr-30 00:32N 62°00' W 006°46'0 0.0
2015-Apr-29 23:27N 62°00' W 006°46'0 0.0
2015-Apr-29 22:19N 62°00' W 006°46'0 0.0
2015-Apr-29 20:21N 62°00' W 006°46'0 0.0
2015-Apr-29 19:33N 62°00' W 006°46'0 0.0
2015-Apr-29 18:33N 62°00' W 006°46'0 0.0
2015-Apr-29 17:33N 62°00' W 006°46'0 0.0
2015-Apr-29 16:33N 62°00' W 006°46'0 0.0
2015-Apr-29 15:28N 62°00' W 006°46'0 0.0
2015-Apr-29 14:29N 62°00' W 006°46'0 0.0
2015-Apr-29 13:33N 62°00' W 006°46'0 0.0
2015-Apr-29 12:33N 62°00' W 006°46'0 0.0
2015-Apr-29 11:33N 62°00' W 006°46'0 0.0
2015-Apr-29 10:33N 62°00' W 006°46'0 0.0
2015-Apr-29 09:31N 62°00' W 006°46'0 0.0
2015-Apr-29 08:14N 62°00' W 006°46'0 0.0
2015-Apr-29 07:20N 62°00' W 006°46'0 0.0
2015-Apr-29 06:28N 62°00' W 006°46'0 0.0
2015-Apr-29 05:32N 62°00' W 006°46'0 0.0
2015-Apr-29 04:18N 62°00' W 006°46'0 0.0
2015-Apr-29 03:28N 62°00' W 006°46'0 0.0
2015-Apr-29 02:27N 62°00' W 006°46'0 0.0
2015-Apr-29 01:29N 62°00' W 006°46'0 0.0
2015-Apr-29 00:22N 62°00' W 006°46'0 0.0
2015-Apr-28 23:33N 62°00' W 006°46'0 0.0
2015-Apr-28 22:18N 62°00' W 006°46'0 0.0
2015-Apr-28 21:24N 62°00' W 006°46'0 0.0
2015-Apr-28 20:32N 62°00' W 006°46'3 3.5
2015-Apr-28 19:32N 61°58' W 006°53'18 8.9
2015-Apr-28 17:33N 62°10' W 007°21'19 1.9
2015-Apr-28 07:18N 62°27' W 007°04'7 3.8
2015-Apr-28 05:26N 62°25' W 006°50'2 0.9
2015-Apr-28 03:24N 62°23' W 006°52'1 1.0
2015-Apr-28 02:14N 62°22' W 006°53'8 0.6
2015-Apr-27 13:32N 62°25' W 006°37'2 1.9
2015-Apr-27 12:25N 62°26' W 006°33'15 0.8
2015-Apr-26 18:32N 62°11' W 006°25'3 2.9
2015-Apr-26 17:32N 62°09' W 006°29'1 0.7
2015-Apr-26 16:28N 62°09' W 006°30'6 6.7
2015-Apr-26 15:31N 62°04' W 006°38'8 7.6
2015-Apr-26 14:26N 61°56' W 006°44'8 9.1
2015-Apr-26 13:33N 62°00' W 006°58'7 0.6
2015-Apr-26 02:21N 61°59' W 007°13'20 1.6
2015-Apr-25 14:05N 61°40' W 007°05'15 3.3
2015-Apr-25 09:22N 61°50' W 007°30'7 6.1
2015-Apr-25 08:09N 61°50' W 007°14'8 3.0
2015-Apr-25 05:24N 61°58' W 007°16'4 0.5
2015-Apr-24 22:32N 61°57' W 007°09'8 8.5
2015-Apr-24 21:33N 61°55' W 006°52'9 8.9
2015-Apr-24 20:31N 61°58' W 006°33'9 9.5
2015-Apr-24 19:33N 62°07' W 006°25'13 1.9
2015-Apr-24 13:04N 62°15' W 006°05'4 6.1
2015-Apr-24 12:24N 62°11' W 006°05'5 5.5
2015-Apr-24 11:32N 62°10' W 006°15'6 6.0
2015-Apr-24 10:31N 62°07' W 006°27'6 6.1
2015-Apr-24 09:32N 62°03' W 006°35'8 7.5
2015-Apr-24 08:32N 62°00' W 006°20'7 7.3
2015-Apr-24 07:33N 62°00' W 006°05'13 9.2
2015-Apr-24 06:06N 61°51' W 006°27'2 3.7
2015-Apr-24 05:31N 61°50' W 006°30'1 0.7
2015-Apr-24 04:19N 61°49' W 006°30'1 1.2
2015-Apr-24 03:32N 61°50' W 006°30'0 0.1
2015-Apr-24 02:33N 61°50' W 006°30'0 0.4
2015-Apr-24 01:24N 61°50' W 006°29'0 0.3
2015-Apr-24 00:26N 61°50' W 006°30'2 1.8
2015-Apr-23 23:33N 61°51' W 006°32'5 5.0
2015-Apr-23 22:32N 61°55' W 006°38'5 4.7
2015-Apr-23 21:29N 61°60' W 006°43'2 1.6
2015-Apr-23 20:32N 62°00' W 006°46'0 0.0
2015-Apr-23 19:33N 62°00' W 006°46'0 0.0
2015-Apr-23 18:29N 62°00' W 006°46'0 0.0
2015-Apr-23 17:32N 62°00' W 006°46'0 0.0
2015-Apr-23 16:21N 62°00' W 006°46'0 0.0
2015-Apr-23 15:31N 62°00' W 006°46'0 0.0
2015-Apr-23 14:33N 62°00' W 006°46'0 0.0
2015-Apr-23 13:33N 62°00' W 006°46'0 0.0
2015-Apr-23 12:32N 62°00' W 006°46'0 0.0
2015-Apr-23 11:33N 62°00' W 006°46'0 0.0
2015-Apr-23 10:32N 62°00' W 006°46'0 0.0
2015-Apr-23 09:31N 62°00' W 006°46'0 0.0
2015-Apr-23 08:27N 62°00' W 006°46'0 0.0
2015-Apr-23 07:06N 62°00' W 006°46'0 0.0
2015-Apr-23 06:32N 62°00' W 006°46'0 0.0
2015-Apr-23 05:33N 62°00' W 006°46'0 0.0
2015-Apr-23 04:33N 62°00' W 006°46'0 0.0
2015-Apr-23 03:33N 62°00' W 006°46'0 0.0
2015-Apr-23 02:32N 62°00' W 006°46'0 0.0
2015-Apr-23 01:32N 62°00' W 006°46'0 0.0
2015-Apr-23 00:32N 62°00' W 006°46'0 0.0
2015-Apr-22 23:33N 62°00' W 006°46'0 0.0
2015-Apr-22 22:32N 62°00' W 006°46'0 0.0
2015-Apr-22 21:33N 62°00' W 006°46'0 0.0
2015-Apr-22 20:33N 62°00' W 006°46'0 0.0
2015-Apr-22 19:33N 62°00' W 006°46'0 0.0
2015-Apr-22 18:33N 62°00' W 006°46'0 0.0
2015-Apr-22 17:32N 62°00' W 006°46'0 0.0
2015-Apr-22 16:33N 62°00' W 006°46'0 0.0
2015-Apr-22 15:32N 62°00' W 006°46'0 0.0
2015-Apr-22 14:33N 62°00' W 006°46'0 0.0
2015-Apr-22 13:33N 62°00' W 006°46'0 0.0
2015-Apr-22 12:27N 62°00' W 006°46'0 0.0
2015-Apr-22 11:33N 62°00' W 006°46'0 0.0
2015-Apr-22 10:30N 62°00' W 006°46'0 0.0
2015-Apr-22 09:33N 62°00' W 006°46'0 0.0
2015-Apr-22 08:28N 62°00' W 006°46'0 0.0
2015-Apr-22 07:33N 62°00' W 006°46'0 0.0
2015-Apr-22 06:33N 62°00' W 006°46'2 2.3
2015-Apr-22 05:31N 61°59' W 006°43'9 9.5
2015-Apr-22 04:32N 61°50' W 006°37'8 8.1
2015-Apr-22 03:30N 61°42' W 006°34'  
Track history (hours):
 
Tides and Currents Weather Stations Pressure Air Temp Water Temp Dewpoint Dewpoint Depression Visibility Wind Speed Wind Dir Waves Ship Positions

Oceanographic research ship Magnus Heinason (Faroe Islands)

Detailed information on ship capabilities available from ARCUS's ALIAS (Arctic Logistics Information and Support) project.

Last reported at 2015-Apr-30 13:33 UTC. Time now 2015-May-05 16:17 UTC.
Position N 62°00' W 006°46'.

Length 44 m; draft 4 m.

Type: . MMSI: 231041000.

Date/timePositionNaut miles runAvg speedWind from/ knotsBaromVisibWave heightAir tempDewpointWater temp
2015-Apr-30 13:33N 62°00' W 006°46'0 0.0
2015-Apr-30 12:33N 62°00' W 006°46'0 0.0
2015-Apr-30 11:32N 62°00' W 006°46'0 0.0
2015-Apr-30 10:33N 62°00' W 006°46'0 0.0
2015-Apr-30 09:32N 62°00' W 006°46'0 0.0
2015-Apr-30 08:33N 62°00' W 006°46'0 0.0
2015-Apr-30 07:29N 62°00' W 006°46'0 0.0
2015-Apr-30 06:32N 62°00' W 006°46'0 0.0
2015-Apr-30 05:25N 62°00' W 006°46'0 0.0
2015-Apr-30 04:27N 62°00' W 006°46'0 0.0
2015-Apr-30 00:32N 62°00' W 006°46'0 0.0
2015-Apr-29 23:27N 62°00' W 006°46'0 0.0
2015-Apr-29 22:19N 62°00' W 006°46'0 0.0
2015-Apr-29 20:21N 62°00' W 006°46'0 0.0
2015-Apr-29 19:33N 62°00' W 006°46'0 0.0
2015-Apr-29 18:33N 62°00' W 006°46'0 0.0
2015-Apr-29 17:33N 62°00' W 006°46'0 0.0
2015-Apr-29 16:33N 62°00' W 006°46'0 0.0
2015-Apr-29 15:28N 62°00' W 006°46'0 0.0
2015-Apr-29 14:29N 62°00' W 006°46'0 0.0
2015-Apr-29 13:33N 62°00' W 006°46'0 0.0
2015-Apr-29 12:33N 62°00' W 006°46'0 0.0
2015-Apr-29 11:33N 62°00' W 006°46'0 0.0
2015-Apr-29 10:33N 62°00' W 006°46'0 0.0
2015-Apr-29 09:31N 62°00' W 006°46'0 0.0
2015-Apr-29 08:14N 62°00' W 006°46'0 0.0
2015-Apr-29 07:20N 62°00' W 006°46'0 0.0
2015-Apr-29 06:28N 62°00' W 006°46'0 0.0
2015-Apr-29 05:32N 62°00' W 006°46'0 0.0
2015-Apr-29 04:18N 62°00' W 006°46'0 0.0
2015-Apr-29 03:28N 62°00' W 006°46'0 0.0
2015-Apr-29 02:27N 62°00' W 006°46'0 0.0
2015-Apr-29 01:29N 62°00' W 006°46'0 0.0
2015-Apr-29 00:22N 62°00' W 006°46'0 0.0
2015-Apr-28 23:33N 62°00' W 006°46'0 0.0
2015-Apr-28 22:18N 62°00' W 006°46'0 0.0
2015-Apr-28 21:24N 62°00' W 006°46'0 0.0
2015-Apr-28 20:32N 62°00' W 006°46'3 3.5
2015-Apr-28 19:32N 61°58' W 006°53'18 8.9
2015-Apr-28 17:33N 62°10' W 007°21'19 1.9
2015-Apr-28 07:18N 62°27' W 007°04'7 3.8
2015-Apr-28 05:26N 62°25' W 006°50'2 0.9
2015-Apr-28 03:24N 62°23' W 006°52'1 1.0
2015-Apr-28 02:14N 62°22' W 006°53'8 0.6
2015-Apr-27 13:32N 62°25' W 006°37'2 1.9
2015-Apr-27 12:25N 62°26' W 006°33'15 0.8
2015-Apr-26 18:32N 62°11' W 006°25'3 2.9
2015-Apr-26 17:32N 62°09' W 006°29'1 0.7
2015-Apr-26 16:28N 62°09' W 006°30'6 6.7
2015-Apr-26 15:31N 62°04' W 006°38'8 7.6
2015-Apr-26 14:26N 61°56' W 006°44'8 9.1
2015-Apr-26 13:33N 62°00' W 006°58'7 0.6
2015-Apr-26 02:21N 61°59' W 007°13'20 1.6
2015-Apr-25 14:05N 61°40' W 007°05'15 3.3
2015-Apr-25 09:22N 61°50' W 007°30'7 6.1
2015-Apr-25 08:09N 61°50' W 007°14'8 3.0
2015-Apr-25 05:24N 61°58' W 007°16'4 0.5
2015-Apr-24 22:32N 61°57' W 007°09'8 8.5
2015-Apr-24 21:33N 61°55' W 006°52'9 8.9
2015-Apr-24 20:31N 61°58' W 006°33'9 9.5
2015-Apr-24 19:33N 62°07' W 006°25'13 1.9
2015-Apr-24 13:04N 62°15' W 006°05'4 6.1
2015-Apr-24 12:24N 62°11' W 006°05'5 5.5
2015-Apr-24 11:32N 62°10' W 006°15'6 6.0
2015-Apr-24 10:31N 62°07' W 006°27'6 6.1
2015-Apr-24 09:32N 62°03' W 006°35'8 7.5
2015-Apr-24 08:32N 62°00' W 006°20'7 7.3
2015-Apr-24 07:33N 62°00' W 006°05'13 9.2
2015-Apr-24 06:06N 61°51' W 006°27'2 3.7
2015-Apr-24 05:31N 61°50' W 006°30'1 0.7
2015-Apr-24 04:19N 61°49' W 006°30'1 1.2
2015-Apr-24 03:32N 61°50' W 006°30'0 0.1
2015-Apr-24 02:33N 61°50' W 006°30'0 0.4
2015-Apr-24 01:24N 61°50' W 006°29'0 0.3
2015-Apr-24 00:26N 61°50' W 006°30'2 1.8
2015-Apr-23 23:33N 61°51' W 006°32'5 5.0
2015-Apr-23 22:32N 61°55' W 006°38'5 4.7
2015-Apr-23 21:29N 61°60' W 006°43'2 1.6
2015-Apr-23 20:32N 62°00' W 006°46'0 0.0
2015-Apr-23 19:33N 62°00' W 006°46'0 0.0
2015-Apr-23 18:29N 62°00' W 006°46'0 0.0
2015-Apr-23 17:32N 62°00' W 006°46'0 0.0
2015-Apr-23 16:21N 62°00' W 006°46'0 0.0
2015-Apr-23 15:31N 62°00' W 006°46'0 0.0
2015-Apr-23 14:33N 62°00' W 006°46'0 0.0
2015-Apr-23 13:33N 62°00' W 006°46'0 0.0
2015-Apr-23 12:32N 62°00' W 006°46'0 0.0
2015-Apr-23 11:33N 62°00' W 006°46'0 0.0
2015-Apr-23 10:32N 62°00' W 006°46'0 0.0
2015-Apr-23 09:31N 62°00' W 006°46'0 0.0
2015-Apr-23 08:27N 62°00' W 006°46'0 0.0
2015-Apr-23 07:06N 62°00' W 006°46'0 0.0
2015-Apr-23 06:32N 62°00' W 006°46'0 0.0
2015-Apr-23 05:33N 62°00' W 006°46'0 0.0
2015-Apr-23 04:33N 62°00' W 006°46'0 0.0
2015-Apr-23 03:33N 62°00' W 006°46'0 0.0
2015-Apr-23 02:32N 62°00' W 006°46'0 0.0
2015-Apr-23 01:32N 62°00' W 006°46'0 0.0
2015-Apr-23 00:32N 62°00' W 006°46'0 0.0
2015-Apr-22 23:33N 62°00' W 006°46'0 0.0
2015-Apr-22 22:32N 62°00' W 006°46'0 0.0
2015-Apr-22 21:33N 62°00' W 006°46'0 0.0
2015-Apr-22 20:33N 62°00' W 006°46'0 0.0
2015-Apr-22 19:33N 62°00' W 006°46'0 0.0
2015-Apr-22 18:33N 62°00' W 006°46'0 0.0
2015-Apr-22 17:32N 62°00' W 006°46'0 0.0
2015-Apr-22 16:33N 62°00' W 006°46'0 0.0
2015-Apr-22 15:32N 62°00' W 006°46'0 0.0
2015-Apr-22 14:33N 62°00' W 006°46'0 0.0
2015-Apr-22 13:33N 62°00' W 006°46'0 0.0
2015-Apr-22 12:27N 62°00' W 006°46'0 0.0
2015-Apr-22 11:33N 62°00' W 006°46'0 0.0
2015-Apr-22 10:30N 62°00' W 006°46'0 0.0
2015-Apr-22 09:33N 62°00' W 006°46'0 0.0
2015-Apr-22 08:28N 62°00' W 006°46'0 0.0
2015-Apr-22 07:33N 62°00' W 006°46'0 0.0
2015-Apr-22 06:33N 62°00' W 006°46'2 2.3
2015-Apr-22 05:31N 61°59' W 006°43'9 9.5
2015-Apr-22 04:32N 61°50' W 006°37'8 8.1
2015-Apr-22 03:30N 61°42' W 006°34'  

Dump ship's entire track history